Time;durP1;ratioP1;P1;durP2;ratioP2;P2;SDS_P1;SDS_P2;PMS_P1;PMS_P2;Temp;Humidity;BMP_temperature;BMP_pressure;BME280_temperature;BME280_humidity;BME280_pressure;Samples;Min_cycle;Max_cycle;Signal;HPM_P1;HPM_P2
2021/04/21 00:01:50;;;;;;;29.00;18.83;;;;;;;8.48;65.61;100031.50;5016312;28;20032;-22
2021/04/21 00:04:15;;;;;;;33.88;17.83;;;;;;;8.36;64.83;100023.28;5016313;28;20021;-22
2021/04/21 00:06:41;;;;;;;30.40;17.63;;;;;;;8.56;63.72;100018.00;5016053;28;20488;-22
2021/04/21 00:09:25;;;;;;;28.88;18.30;;;;;;;8.69;63.55;100033.09;5050664;28;20036;-22
2021/04/21 00:11:50;;;;;;;27.65;17.00;;;;;;;8.90;62.88;100039.19;5033038;28;20036;-22
2021/04/21 00:14:21;;;;;;;27.60;17.30;;;;;;;9.05;62.34;100042.41;5032809;28;20029;-23
2021/04/21 00:16:50;;;;;;;29.70;17.70;;;;;;;8.67;63.11;100024.53;5032866;28;20098;-22
2021/04/21 00:19:18;;;;;;;30.80;18.65;;;;;;;9.06;62.36;100046.72;5032616;28;20556;-22
2021/04/21 00:21:44;;;;;;;24.65;16.42;;;;;;;9.04;62.19;100044.25;5032764;28;20453;-22
2021/04/21 00:24:09;;;;;;;26.75;16.25;;;;;;;9.25;60.68;100043.19;5032479;28;20036;-22
2021/04/21 00:26:35;;;;;;;26.13;15.63;;;;;;;9.02;60.84;100029.53;5032342;28;20547;-24
2021/04/21 00:29:01;;;;;;;25.35;15.55;;;;;;;8.91;61.71;100051.44;5032321;28;20143;-20
2021/04/21 00:31:26;;;;;;;25.90;16.55;;;;;;;8.49;62.85;100037.63;5015957;28;20037;-22
2021/04/21 00:33:56;;;;;;;25.75;14.57;;;;;;;8.40;63.72;100039.66;5032620;28;20880;-22
2021/04/21 00:36:21;;;;;;;24.48;14.85;;;;;;;7.81;65.35;100026.13;5032472;28;20033;-19
2021/04/21 00:38:47;;;;;;;24.20;14.98;;;;;;;7.14;67.90;100040.19;5032446;28;20357;-22
2021/04/21 00:41:27;;;;;;;23.95;14.52;;;;;;;7.29;67.77;100045.34;5015700;28;20029;-22
2021/04/21 00:44:00;;;;;;;26.00;15.10;;;;;;;7.75;65.49;100039.38;5031361;28;20112;-22
2021/04/21 00:46:47;;;;;;;25.17;14.65;;;;;;;8.08;64.97;100062.53;5033127;28;20059;-22
2021/04/21 00:49:26;;;;;;;22.63;13.93;;;;;;;8.07;64.06;100044.94;5049691;28;20262;-22
2021/04/21 00:52:07;;;;;;;22.95;14.43;;;;;;;7.98;64.24;100061.06;5017127;28;20060;-22
2021/04/21 00:54:58;;;;;;;21.92;12.98;;;;;;;7.23;66.46;100060.22;5032156;28;20136;-22
2021/04/21 00:58:09;;;;;;;23.63;13.98;;;;;;;7.52;66.44;100059.13;5049677;28;20048;-22
2021/04/21 01:00:37;;;;;;;24.95;15.68;;;;;;;7.69;65.91;100077.34;5025168;28;20090;-22
2021/04/21 01:03:11;;;;;;;27.67;17.07;;;;;;;7.85;66.02;100061.88;5032055;28;20523;-22
2021/04/21 01:05:41;;;;;;;26.27;16.40;;;;;;;8.44;64.15;100062.16;5032682;28;20033;-22
2021/04/21 01:08:08;;;;;;;26.02;15.45;;;;;;;8.20;64.66;100040.47;5015305;28;20029;-22
2021/04/21 01:10:43;;;;;;;28.07;16.10;;;;;;;7.94;65.73;100065.13;5031274;28;20051;-22
2021/04/21 01:13:09;;;;;;;29.30;16.27;;;;;;;7.88;66.07;100068.59;5032649;28;20159;-22
2021/04/21 01:15:34;;;;;;;31.40;18.70;;;;;;;7.13;68.47;100063.25;5049524;28;20137;-22
2021/04/21 01:18:00;;;;;;;36.15;23.35;;;;;;;7.09;68.58;100064.66;5015466;28;20043;-19
2021/04/21 01:20:30;;;;;;;32.85;21.50;;;;;;;7.36;68.11;100070.91;5015353;28;20029;-22
2021/04/21 01:23:07;;;;;;;28.00;17.98;;;;;;;7.15;68.30;100069.16;5031356;28;20036;-22
2021/04/21 01:26:02;;;;;;;30.67;18.15;;;;;;;7.55;66.96;100084.44;5031285;28;20020;-22
2021/04/21 01:28:27;;;;;;;28.25;17.23;;;;;;;7.40;67.78;100072.13;5040603;28;20036;-22
2021/04/21 01:30:53;;;;;;;25.73;15.80;;;;;;;7.32;67.65;100076.81;5014683;28;20571;-22
2021/04/21 01:33:20;;;;;;;27.33;17.15;;;;;;;7.75;65.52;100081.84;5014942;28;20047;-22
2021/04/21 01:35:52;;;;;;;27.75;16.95;;;;;;;7.48;66.12;100071.16;5014579;28;20074;-22
2021/04/21 01:38:17;;;;;;;21.73;13.93;;;;;;;7.60;65.58;100061.59;5015534;28;20171;-22
2021/04/21 01:40:44;;;;;;;22.83;13.45;;;;;;;7.72;64.11;100061.00;5014862;28;20151;-21
2021/04/21 01:43:13;;;;;;;24.13;14.95;;;;;;;7.94;62.65;100069.63;5031422;28;20124;-22
2021/04/21 01:45:39;;;;;;;24.63;15.43;;;;;;;6.94;66.61;100071.91;5049112;28;20021;-19
2021/04/21 01:48:18;;;;;;;23.20;13.20;;;;;;;6.49;66.45;100052.84;5014804;28;20043;-22
2021/04/21 01:50:44;;;;;;;23.35;14.02;;;;;;;6.83;66.33;100073.25;5048267;28;20049;-23
2021/04/21 01:53:15;;;;;;;24.42;15.10;;;;;;;7.20;65.96;100087.94;5048704;28;20021;-22
2021/04/21 01:56:02;;;;;;;25.27;14.85;;;;;;;6.58;68.00;100086.13;5047441;28;20090;-23
2021/04/21 01:58:50;;;;;;;29.25;14.93;;;;;;;6.73;66.98;100065.66;5048504;28;20032;-22
2021/04/21 02:01:37;;;;;;;27.00;15.23;;;;;;;6.72;67.79;100087.88;5033269;28;20029;-23
2021/04/21 02:04:18;;;;;;;21.25;13.50;;;;;;;6.05;68.79;100089.13;5048361;28;20033;-22
2021/04/21 02:06:46;;;;;;;25.13;14.48;;;;;;;6.10;69.70;100091.22;5032319;28;20040;-22
2021/04/21 02:09:22;;;;;;;22.40;14.65;;;;;;;6.17;69.01;100068.25;5048278;28;20032;-22
2021/04/21 02:12:01;;;;;;;25.05;14.93;;;;;;;7.14;66.67;100098.53;5048626;28;20035;-22
2021/04/21 02:14:41;;;;;;;26.38;15.23;;;;;;;7.15;66.06;100082.44;5031310;28;20493;-22
2021/04/21 02:17:20;;;;;;;28.00;15.88;;;;;;;7.38;65.32;100078.66;5031403;28;20033;-22
2021/04/21 02:20:07;;;;;;;26.13;15.32;;;;;;;7.23;65.75;100087.56;5030277;28;20063;-22
2021/04/21 02:22:35;;;;;;;23.83;15.55;;;;;;;7.35;64.96;100084.34;5030368;28;20083;-22
2021/04/21 02:25:19;;;;;;;26.85;16.08;;;;;;;7.58;64.78;100095.47;5030499;28;20021;-23
2021/04/21 02:28:06;;;;;;;27.15;16.00;;;;;;;7.73;63.98;100090.00;5047900;28;20037;-22
2021/04/21 02:30:43;;;;;;;29.65;16.95;;;;;;;7.58;64.43;100095.47;5047688;28;20103;-22
2021/04/21 02:33:15;;;;;;;28.92;17.02;;;;;;;6.78;67.09;100071.19;5048201;28;20032;-22
2021/04/21 02:35:52;;;;;;;27.80;16.73;;;;;;;7.51;65.94;100094.63;5031508;28;20200;-22
2021/04/21 02:38:36;;;;;;;26.67;15.95;;;;;;;7.73;63.72;100089.19;5029940;28;20051;-23
2021/04/21 02:41:04;;;;;;;23.23;13.50;;;;;;;7.33;64.16;100086.38;5047913;28;20028;-22
2021/04/21 02:43:39;;;;;;;25.40;15.65;;;;;;;6.44;67.24;100072.78;5048073;28;20037;-22
2021/04/21 02:46:59;;;;;;;25.48;15.00;;;;;;;6.75;66.50;100079.53;5047700;28;20032;-22
2021/04/21 02:49:56;;;;;;;27.35;16.20;;;;;;;7.36;64.59;100088.66;4986221;28;20056;-23
2021/04/21 02:52:56;;;;;;;28.98;17.90;;;;;;;7.11;66.13;100080.34;5031512;28;20049;-22
2021/04/21 02:55:58;;;;;;;30.25;18.02;;;;;;;6.83;66.48;100086.50;5016114;28;20037;-22
2021/04/21 02:58:30;;;;;;;28.60;17.30;;;;;;;6.91;66.18;100088.22;5010828;28;20048;-22
2021/04/21 03:01:25;;;;;;;24.83;15.25;;;;;;;6.56;66.27;100064.28;5047298;28;20017;-22
2021/04/21 03:03:52;;;;;;;24.05;16.20;;;;;;;6.89;65.82;100090.22;5047282;28;20485;-22
2021/04/21 03:06:24;;;;;;;24.60;14.85;;;;;;;6.95;65.33;100078.84;5031234;28;20382;-22
2021/04/21 03:09:03;;;;;;;24.10;14.02;;;;;;;6.48;66.41;100067.06;5017647;28;20061;-22
2021/04/21 03:11:29;;;;;;;;;;;;;;;6.77;66.33;100082.00;5018757;28;20025;-22
2021/04/21 03:13:57;;;;;;;23.17;14.55;;;;;;;7.21;64.24;100089.59;5051630;28;20380;-22
2021/04/21 03:16:22;;;;;;;;;;;;;;;6.84;65.57;100088.97;5052143;28;20020;-22
2021/04/21 03:18:48;;;;;;;24.25;14.38;;;;;;;6.70;65.58;100081.94;5051504;28;19932;-22
2021/04/21 03:21:30;;;;;;;21.95;13.55;;;;;;;7.08;64.14;100100.13;5017270;28;20028;-22
2021/04/21 03:24:16;;;;;;;28.50;15.55;;;;;;;6.59;65.66;100107.13;5033471;28;20079;-22
2021/04/21 03:26:44;;;;;;;40.88;17.38;;;;;;;6.30;66.75;100091.41;5033786;28;20036;-22
2021/04/21 03:29:38;;;;;;;30.88;18.48;;;;;;;6.72;65.96;100109.06;5033762;28;20122;-23
2021/04/21 03:32:06;;;;;;;27.17;15.25;;;;;;;6.72;64.97;100095.81;5047260;28;20152;-19
2021/04/21 03:34:31;;;;;;;22.98;14.15;;;;;;;6.72;65.33;100110.88;5033320;28;20025;-21
2021/04/21 03:36:57;;;;;;;22.85;14.93;;;;;;;6.93;65.03;100118.00;5033603;28;20059;-19
2021/04/21 03:39:22;;;;;;;22.25;13.35;;;;;;;6.18;67.86;100125.50;5033891;28;20051;-23
2021/04/21 03:41:49;;;;;;;22.17;13.73;;;;;;;5.64;67.91;100135.47;5033101;28;20123;-22
2021/04/21 03:44:14;;;;;;;23.88;14.32;;;;;;;6.19;66.88;100132.44;5032800;28;20079;-22
2021/04/21 03:46:41;;;;;;;25.02;14.50;;;;;;;6.75;65.73;100137.84;5032995;28;20036;-22
2021/04/21 03:49:07;;;;;;;21.83;14.07;;;;;;;6.09;67.03;100126.63;5033201;28;20039;-22
2021/04/21 03:51:33;;;;;;;21.88;14.40;;;;;;;5.42;69.34;100131.94;5033032;28;20052;-22
2021/04/21 03:53:58;;;;;;;21.42;12.70;;;;;;;5.43;68.46;100148.63;5033345;28;20025;-22
2021/04/21 03:56:24;;;;;;;21.73;13.45;;;;;;;5.46;69.23;100150.91;5000614;28;20048;-22
2021/04/21 03:58:51;;;;;;;23.08;13.48;;;;;;;5.11;70.00;100147.16;5050667;28;20062;-22
2021/04/21 04:01:21;;;;;;;22.42;12.85;;;;;;;4.96;70.80;100139.19;5050695;28;20454;-22
2021/04/21 04:03:54;;;;;;;23.58;14.73;;;;;;;5.46;69.60;100152.75;5033459;28;20029;-23
2021/04/21 04:06:23;;;;;;;21.25;13.38;;;;;;;6.12;66.86;100152.75;5051244;28;20124;-22
2021/04/21 04:09:00;;;;;;;25.25;13.90;;;;;;;6.55;66.43;100152.75;5032858;28;20025;-21
2021/04/21 04:11:28;;;;;;;22.85;14.07;;;;;;;6.97;63.81;100166.97;5033223;28;20040;-22
2021/04/21 04:13:56;;;;;;;29.03;15.00;;;;;;;6.90;65.18;100155.47;5032887;28;20532;-22
2021/04/21 04:16:22;;;;;;;26.55;15.60;;;;;;;7.07;64.17;100156.00;5016545;28;20029;-22
2021/04/21 04:18:48;;;;;;;34.60;19.52;;;;;;;7.25;63.92;100174.88;5031420;28;20063;-22
2021/04/21 04:21:13;;;;;;;35.30;19.02;;;;;;;6.93;66.06;100155.09;5050506;28;20522;-22
2021/04/21 04:23:41;;;;;;;43.72;23.75;;;;;;;6.83;66.09;100168.69;5032610;28;20500;-22
2021/04/21 04:26:07;;;;;;;50.60;25.55;;;;;;;6.25;68.21;100152.84;5050418;28;20025;-23
2021/04/21 04:28:33;;;;;;;34.90;19.30;;;;;;;6.27;68.18;100150.03;5050045;28;20145;-22
2021/04/21 04:31:03;;;;;;;39.28;22.23;;;;;;;6.48;68.64;100158.00;5032574;28;20039;-22
2021/04/21 04:33:29;;;;;;;32.95;18.52;;;;;;;7.03;66.12;100182.09;5050337;28;20033;-23
2021/04/21 04:35:55;;;;;;;29.38;17.85;;;;;;;6.98;66.65;100164.09;5050324;28;20032;-23
2021/04/21 04:38:20;;;;;;;27.90;17.50;;;;;;;7.10;66.60;100187.44;5032407;28;20036;-22
2021/04/21 04:40:46;;;;;;;28.95;16.80;;;;;;;7.24;65.76;100187.34;5049875;28;20036;-22
2021/04/21 04:43:11;;;;;;;29.83;15.82;;;;;;;7.45;65.27;100182.97;5015779;28;20041;-22
2021/04/21 04:45:38;;;;;;;22.67;14.88;;;;;;;6.98;66.36;100179.19;5049925;28;20404;-23
2021/04/21 04:48:04;;;;;;;25.30;15.25;;;;;;;7.37;65.88;100197.22;5050136;28;20190;-22
2021/04/21 04:50:33;;;;;;;24.45;16.35;;;;;;;7.82;63.60;100164.97;5031985;28;20029;-22
2021/04/21 04:52:58;;;;;;;;;;;;;;;8.30;62.99;100196.81;5032730;28;20037;-23
2021/04/21 04:55:25;;;;;;;25.35;15.23;;;;;;;8.49;62.35;100191.78;5049711;28;19927;-23
2021/04/21 04:57:52;;;;;;;24.30;15.38;;;;;;;8.22;63.58;100192.50;5049804;28;20024;-22
2021/04/21 05:00:20;;;;;;;24.23;16.30;;;;;;;7.92;64.48;100180.56;5049726;28;20032;-22
2021/04/21 05:02:49;;;;;;;26.77;15.98;;;;;;;8.44;63.31;100197.72;5049418;28;20037;-22
2021/04/21 05:05:14;;;;;;;28.05;16.48;;;;;;;8.72;62.96;100199.38;5049685;28;20033;-23
2021/04/21 05:08:05;;;;;;;27.02;17.75;;;;;;;9.09;61.40;100194.47;5031797;28;20099;-23
2021/04/21 05:10:40;;;;;;;31.05;19.55;;;;;;;9.21;61.51;100184.81;5041985;28;20122;-20
2021/04/21 05:13:05;;;;;;;30.00;18.33;;;;;;;9.32;62.67;100207.34;5016181;28;20674;-23
2021/04/21 05:15:37;;;;;;;24.52;16.73;;;;;;;9.44;62.11;100217.16;5031667;28;20032;-21
2021/04/21 05:18:50;;;;;;;26.98;15.27;;;;;;;9.86;61.61;100216.81;5049463;28;20138;-22
2021/04/21 05:21:47;;;;;;;23.50;15.55;;;;;;;9.87;60.55;100215.81;5002856;28;20523;-21
2021/04/21 05:24:27;;;;;;;22.52;14.48;;;;;;;10.08;60.51;100211.22;5049200;28;20025;-22
2021/04/21 05:27:32;;;;;;;25.90;15.23;;;;;;;10.11;60.94;100210.78;5049028;28;20055;-22
2021/04/21 05:30:35;;;;;;;22.55;14.68;;;;;;;10.21;61.06;100225.28;5034354;28;20029;-22
2021/04/21 05:33:38;;;;;;;24.73;16.58;;;;;;;10.48;59.89;100227.84;5049234;28;20021;-21
2021/04/21 05:36:31;;;;;;;21.45;14.25;;;;;;;10.58;58.63;100206.88;5049169;28;20447;-22
2021/04/21 05:39:34;;;;;;;22.10;14.45;;;;;;;10.82;58.32;100233.78;5049151;28;20025;-22
2021/04/21 05:42:18;;;;;;;22.38;14.45;;;;;;;10.70;59.73;100230.19;5048912;28;20063;-22
2021/04/21 05:44:55;;;;;;;22.50;14.55;;;;;;;11.09;57.94;100230.91;5048790;28;20017;-21
2021/04/21 05:47:39;;;;;;;22.95;14.77;;;;;;;11.19;58.23;100232.03;5048891;28;20033;-22
2021/04/21 05:50:07;;;;;;;23.52;15.02;;;;;;;11.38;57.51;100221.41;5048879;28;20029;-22
2021/04/21 05:53:10;;;;;;;21.48;14.00;;;;;;;11.79;56.45;100238.66;5048890;28;20528;-22
2021/04/21 05:56:14;;;;;;;20.98;14.57;;;;;;;11.63;56.20;100240.88;5048628;28;20029;-22
2021/04/21 05:59:22;;;;;;;23.15;15.15;;;;;;;11.16;56.07;100219.16;5048496;28;20025;-22
2021/04/21 06:01:49;;;;;;;22.13;14.52;;;;;;;11.35;56.95;100227.19;5033630;28;20060;-22
2021/04/21 06:04:17;;;;;;;21.55;14.38;;;;;;;11.44;56.45;100212.50;5048532;28;20561;-22
2021/04/21 06:06:42;;;;;;;21.02;14.02;;;;;;;11.19;57.42;100224.03;5048540;28;20024;-22
2021/04/21 06:09:09;;;;;;;19.17;14.07;;;;;;;11.38;57.79;100237.44;5048479;28;20417;-22
2021/04/21 06:11:35;;;;;;;21.58;14.40;;;;;;;11.63;56.55;100219.50;5048564;28;20119;-22
2021/04/21 06:14:03;;;;;;;20.13;13.73;;;;;;;12.06;54.90;100232.00;5030838;28;20029;-22
2021/04/21 06:16:29;;;;;;;21.17;14.13;;;;;;;12.31;54.16;100231.06;5048334;28;20434;-22
2021/04/21 06:18:57;;;;;;;22.70;13.70;;;;;;;12.00;54.59;100235.56;5047898;28;20836;-23
2021/04/21 06:21:23;;;;;;;19.50;13.73;;;;;;;11.97;54.18;100220.00;5048267;28;20120;-23
2021/04/21 06:23:49;;;;;;;20.40;13.73;;;;;;;12.18;54.48;100232.06;5048145;28;20021;-22
2021/04/21 06:26:25;;;;;;;20.17;14.02;;;;;;;12.36;53.43;100214.34;5030505;28;20570;-23
2021/04/21 06:29:07;;;;;;;20.52;13.27;;;;;;;12.10;54.41;100229.72;5048104;28;20553;-22
2021/04/21 06:31:43;;;;;;;19.73;14.50;;;;;;;12.57;54.46;100242.47;5048134;28;20033;-23
2021/04/21 06:34:09;;;;;;;19.25;14.07;;;;;;;12.88;54.12;100243.25;5048198;28;20021;-23
2021/04/21 06:36:38;;;;;;;17.98;13.20;;;;;;;12.88;53.38;100221.84;5047673;28;20459;-22
2021/04/21 06:39:04;;;;;;;17.50;12.38;;;;;;;12.86;53.04;100217.50;5047965;28;20689;-22
2021/04/21 06:41:30;;;;;;;19.23;12.85;;;;;;;12.84;52.75;100240.22;5047349;28;20079;-23
2021/04/21 06:43:56;;;;;;;16.80;12.80;;;;;;;12.90;51.39;100222.41;5047776;28;20029;-23
2021/04/21 06:46:22;;;;;;;17.75;12.43;;;;;;;13.24;53.66;100235.03;5047806;28;20025;-22
2021/04/21 06:48:54;;;;;;;17.75;11.70;;;;;;;13.27;52.11;100239.09;5047825;28;20068;-23
2021/04/21 06:51:21;;;;;;;16.67;11.70;;;;;;;12.96;54.49;100226.84;5047822;28;20647;-23
2021/04/21 06:53:47;;;;;;;18.10;12.82;;;;;;;13.27;52.70;100231.88;5047906;28;20028;-22
2021/04/21 06:56:13;;;;;;;16.35;11.95;;;;;;;13.63;53.06;100248.78;5047571;28;20021;-22
2021/04/21 06:58:39;;;;;;;19.98;12.57;;;;;;;13.40;53.57;100230.03;5029691;28;20029;-22
2021/04/21 07:01:11;;;;;;;19.05;12.52;;;;;;;13.61;51.70;100248.22;5047619;28;20064;-23
2021/04/21 07:03:37;;;;;;;17.10;12.68;;;;;;;13.37;54.79;100233.19;5047711;28;20465;-22
2021/04/21 07:06:03;;;;;;;17.98;12.77;;;;;;;13.62;52.58;100247.16;5047697;28;20092;-22
2021/04/21 07:08:32;;;;;;;17.90;13.00;;;;;;;13.51;54.05;100253.34;5047749;28;20024;-22
2021/04/21 07:10:58;;;;;;;18.55;12.30;;;;;;;13.72;52.45;100235.84;5030004;28;20087;-22
2021/04/21 07:13:50;;;;;;;15.30;11.02;;;;;;;13.71;52.77;100254.84;5047613;28;20516;-22
2021/04/21 07:16:16;;;;;;;17.48;12.70;;;;;;;13.94;53.33;100264.72;5047186;28;20128;-22
2021/04/21 07:18:46;;;;;;;16.25;11.57;;;;;;;13.84;49.35;100244.69;5047487;28;20112;-22
2021/04/21 07:21:12;;;;;;;15.45;11.43;;;;;;;14.20;52.60;100266.03;5047606;28;20094;-22
2021/04/21 07:23:38;;;;;;;16.83;11.93;;;;;;;14.20;52.67;100263.34;5029684;28;20025;-22
2021/04/21 07:26:03;;;;;;;18.25;13.30;;;;;;;14.22;53.07;100266.63;5013231;28;20036;-22
2021/04/21 07:28:29;;;;;;;18.23;14.20;;;;;;;14.34;51.51;100243.25;5013754;28;20496;-23
2021/04/21 07:30:54;;;;;;;19.23;12.85;;;;;;;14.57;51.28;100265.72;5047437;28;20530;-22
2021/04/21 07:33:33;;;;;;;17.50;12.63;;;;;;;14.58;52.41;100270.84;5047470;28;20028;-22
2021/04/21 07:36:11;;;;;;;16.17;11.68;;;;;;;14.61;50.08;100269.56;5047712;28;20042;-22
2021/04/21 07:38:48;;;;;;;18.15;12.13;;;;;;;14.54;52.80;100263.47;5047148;28;20025;-23
2021/04/21 07:41:14;;;;;;;17.77;11.55;;;;;;;14.56;51.77;100256.03;5048083;28;20513;-23
2021/04/21 07:43:46;;;;;;;15.90;10.30;;;;;;;14.53;50.39;100254.63;5029877;28;20052;-22
2021/04/21 07:46:22;;;;;;;18.85;12.10;;;;;;;14.83;51.62;100261.59;5047191;28;20037;-22
2021/04/21 07:48:48;;;;;;;13.48;10.10;;;;;;;14.93;49.93;100245.69;5047025;28;20033;-27
2021/04/21 07:51:17;;;;;;;13.95;9.75;;;;;;;15.47;49.27;100261.31;5047156;28;20048;-22
2021/04/21 07:53:58;;;;;;;14.77;10.80;;;;;;;15.66;51.33;100268.03;5050844;28;20025;-22
2021/04/21 07:56:26;;;;;;;18.10;11.02;;;;;;;15.89;51.04;100254.63;5051040;28;20481;-22
2021/04/21 07:58:51;;;;;;;14.60;10.95;;;;;;;16.01;50.44;100248.06;5050701;28;20047;-22
2021/04/21 08:01:31;;;;;;;15.20;10.32;;;;;;;16.30;48.81;100263.22;5051013;28;20537;-22
2021/04/21 08:04:16;;;;;;;14.48;10.15;;;;;;;16.12;47.01;100267.03;5035372;28;20025;-22
2021/04/21 08:06:41;;;;;;;14.23;10.15;;;;;;;16.39;49.29;100262.50;5033561;28;20032;-22
2021/04/21 08:09:07;;;;;;;13.50;9.45;;;;;;;16.15;48.13;100258.47;5050756;28;20087;-22
2021/04/21 08:11:32;;;;;;;13.98;9.20;;;;;;;16.12;48.13;100256.25;5050787;28;20033;-22
2021/04/21 08:13:58;;;;;;;14.90;10.13;;;;;;;16.60;47.70;100252.75;5050904;28;20108;-22
2021/04/21 08:16:30;;;;;;;12.35;8.65;;;;;;;16.69;47.47;100261.19;5033004;28;20037;-22
2021/04/21 08:18:57;;;;;;;9.70;7.30;;;;;;;17.34;45.45;100243.16;5050692;28;20021;-22
2021/04/21 08:21:42;;;;;;;10.02;7.15;;;;;;;17.40;46.46;100254.81;5050585;28;20127;-21
2021/04/21 08:24:13;;;;;;;8.70;6.80;;;;;;;16.84;44.10;100226.38;5050640;28;20564;-22
2021/04/21 08:26:39;;;;;;;9.98;7.22;;;;;;;17.51;46.27;100234.09;5050181;28;20037;-22
2021/04/21 08:29:08;;;;;;;8.32;6.47;;;;;;;17.76;44.38;100258.53;5050500;28;20102;-22
2021/04/21 08:31:34;;;;;;;8.82;6.30;;;;;;;17.67;44.29;100255.53;5050426;28;20041;-22
2021/04/21 08:34:00;;;;;;;9.65;6.65;;;;;;;17.72;43.64;100251.22;5016192;28;20036;-22
2021/04/21 08:36:26;;;;;;;9.43;7.07;;;;;;;18.21;43.88;100253.63;5050129;28;20107;-21
2021/04/21 08:38:51;;;;;;;10.10;6.85;;;;;;;18.60;42.75;100250.50;5050174;28;20585;-22
2021/04/21 08:41:19;;;;;;;10.25;6.82;;;;;;;18.99;40.89;100260.81;5050390;28;20043;-22
2021/04/21 08:43:48;;;;;;;9.90;6.80;;;;;;;18.98;43.07;100251.91;5050224;28;20041;-22
2021/04/21 08:46:15;;;;;;;9.80;6.28;;;;;;;18.41;44.73;100247.47;5050146;28;20492;-22
2021/04/21 08:48:41;;;;;;;17.17;12.13;;;;;;;18.25;39.61;100243.94;5049857;28;20041;-22
2021/04/21 08:51:07;;;;;;;11.48;6.95;;;;;;;18.35;40.31;100243.94;5049706;28;20554;-22
2021/04/21 08:53:34;;;;;;;7.93;6.15;;;;;;;18.50;41.30;100245.06;5050085;28;20099;-22
2021/04/21 08:56:00;;;;;;;8.63;5.87;;;;;;;18.96;41.12;100237.03;5049942;28;20092;-22
2021/04/21 08:58:26;;;;;;;7.85;5.38;;;;;;;19.02;37.35;100241.34;5015812;28;20350;-22
2021/04/21 09:00:51;;;;;;;7.53;5.40;;;;;;;19.32;38.27;100237.81;5032038;28;20033;-22
2021/04/21 09:03:17;;;;;;;8.45;4.97;;;;;;;19.15;39.76;100223.78;5015427;28;20477;-21
2021/04/21 09:05:42;;;;;;;7.97;5.28;;;;;;;18.77;39.91;100245.63;5015210;28;20031;-22
2021/04/21 09:08:09;;;;;;;8.05;5.57;;;;;;;18.92;39.09;100225.13;5031986;28;20072;-22
2021/04/21 09:10:35;;;;;;;11.10;5.60;;;;;;;18.93;38.41;100226.78;5031934;28;20105;-22
2021/04/21 09:13:00;;;;;;;7.45;5.20;;;;;;;18.60;38.23;100218.06;5032032;28;20029;-22
2021/04/21 09:15:26;;;;;;;7.63;5.38;;;;;;;18.72;39.13;100226.72;5049673;28;20418;-22
2021/04/21 09:17:52;;;;;;;7.68;5.72;;;;;;;18.57;38.13;100213.19;5049603;28;20037;-20
2021/04/21 09:20:20;;;;;;;8.40;6.07;;;;;;;18.34;41.19;100211.81;5049563;28;20032;-20
2021/04/21 09:22:58;;;;;;;9.88;6.70;;;;;;;17.93;42.75;100214.41;5049331;28;20040;-20
2021/04/21 09:25:24;;;;;;;8.73;6.13;;;;;;;17.78;41.67;100212.41;5049380;28;20028;-22
2021/04/21 09:27:56;;;;;;;10.68;6.10;;;;;;;18.19;42.16;100218.00;5049575;28;20072;-22
2021/04/21 09:30:22;;;;;;;8.85;6.07;;;;;;;17.91;40.05;100205.75;5049393;28;20025;-22
2021/04/21 09:32:50;;;;;;;7.72;6.03;;;;;;;17.91;43.15;100211.94;5048978;28;20029;-22
2021/04/21 09:35:25;;;;;;;11.73;6.20;;;;;;;17.85;42.72;100199.50;5049155;28;20033;-22
2021/04/21 09:38:09;;;;;;;8.15;5.78;;;;;;;17.58;43.80;100173.47;5049346;28;20045;-22
2021/04/21 09:40:42;;;;;;;8.15;5.00;;;;;;;17.78;43.00;100188.16;5049231;28;20524;-21
2021/04/21 09:43:11;;;;;;;6.95;5.15;;;;;;;18.26;40.32;100202.34;5049037;28;20037;-22
2021/04/21 09:45:39;;;;;;;7.38;4.82;;;;;;;18.52;38.49;100203.22;5048799;28;20021;-22
2021/04/21 09:48:12;;;;;;;6.63;4.20;;;;;;;18.91;36.03;100185.69;5049143;28;20033;-22
2021/04/21 09:50:38;;;;;;;6.25;4.43;;;;;;;18.82;37.37;100193.53;5048586;28;20264;-22
2021/04/21 09:53:21;;;;;;;6.90;4.63;;;;;;;18.75;38.19;100188.34;5049104;28;20128;-22
2021/04/21 09:56:04;;;;;;;8.00;4.95;;;;;;;18.80;39.62;100198.41;5048615;28;20029;-22
2021/04/21 09:58:33;;;;;;;9.50;5.15;;;;;;;18.36;39.95;100186.16;5031072;28;20028;-21
2021/04/21 10:00:59;;;;;;;7.00;5.28;;;;;;;18.59;38.04;100189.44;5048736;28;20036;-22
2021/04/21 10:03:24;;;;;;;8.55;4.85;;;;;;;18.42;39.00;100163.50;5048756;28;20479;-22
2021/04/21 10:05:50;;;;;;;7.53;5.32;;;;;;;18.18;38.99;100179.38;5048627;28;20066;-21
2021/04/21 10:08:17;;;;;;;8.10;4.90;;;;;;;18.42;38.06;100174.28;5048754;28;20064;-20
2021/04/21 10:10:47;;;;;;;6.28;4.88;;;;;;;18.49;36.86;100163.25;5048211;28;20036;-20
2021/04/21 10:13:14;;;;;;;7.55;5.28;;;;;;;18.91;37.79;100180.28;5048591;28;20130;-22
2021/04/21 10:15:40;;;;;;;12.57;6.93;;;;;;;19.37;36.64;100169.38;5030056;28;20036;-21
2021/04/21 10:18:06;;;;;;;6.32;4.43;;;;;;;19.67;34.58;100174.69;5048452;28;20390;-21
2021/04/21 10:20:31;;;;;;;7.03;4.30;;;;;;;20.06;37.06;100182.13;5014040;28;20056;-21
2021/04/21 10:22:57;;;;;;;5.60;3.80;;;;;;;20.15;33.11;100159.91;5048477;28;20040;-20
2021/04/21 10:25:23;;;;;;;6.32;4.60;;;;;;;19.95;36.25;100188.69;5048586;28;20283;-22
2021/04/21 10:27:49;;;;;;;7.32;3.90;;;;;;;20.42;36.86;100162.94;5048944;28;20051;-22
2021/04/21 10:30:15;;;;;;;5.03;3.15;;;;;;;20.31;34.26;100185.78;5048773;28;20036;-22
2021/04/21 10:32:40;;;;;;;5.30;3.42;;;;;;;20.38;31.79;100190.88;5047984;28;20021;-22
2021/04/21 10:35:06;;;;;;;4.55;3.03;;;;;;;20.82;30.79;100196.28;5047956;28;20029;-21
2021/04/21 10:37:35;;;;;;;6.43;3.85;;;;;;;20.92;30.17;100194.56;5048175;28;20035;-20
2021/04/21 10:40:01;;;;;;;5.22;3.08;;;;;;;20.56;29.08;100192.13;5030622;28;20029;-21
2021/04/21 10:42:26;;;;;;;4.82;3.03;;;;;;;19.67;31.39;100184.69;5030284;28;20036;-20
2021/04/21 10:44:52;;;;;;;5.28;3.13;;;;;;;19.32;34.05;100196.44;5030266;28;20021;-21
2021/04/21 10:47:18;;;;;;;5.88;3.22;;;;;;;18.75;32.44;100204.56;5048163;28;20039;-21
2021/04/21 10:49:57;;;;;;;6.53;3.90;;;;;;;18.31;35.01;100205.06;5047926;28;20033;-21
2021/04/21 10:52:26;;;;;;;5.32;3.50;;;;;;;18.00;33.02;100210.38;5047731;28;20135;-20
2021/04/21 10:54:54;;;;;;;6.90;4.00;;;;;;;18.00;36.29;100207.69;5047992;28;20033;-21
2021/04/21 10:57:20;;;;;;;6.00;4.13;;;;;;;17.89;38.57;100216.81;5030280;28;20416;-20
2021/04/21 11:00:10;;;;;;;22.40;11.88;;;;;;;16.61;41.67;100221.25;5048000;28;20025;-20
2021/04/21 11:02:45;;;;;;;6.20;4.03;;;;;;;16.19;44.97;100221.94;5047593;28;20060;-21
2021/04/21 11:05:11;;;;;;;6.45;3.83;;;;;;;16.24;43.52;100232.72;5047958;28;20028;-22
2021/04/21 11:07:37;;;;;;;7.43;3.53;;;;;;;15.83;43.92;100227.69;5047895;28;20025;-21
2021/04/21 11:10:05;;;;;;;5.78;3.88;;;;;;;15.65;43.05;100219.88;5047834;28;20396;-21
2021/04/21 11:12:49;;;;;;;5.28;3.70;;;;;;;15.66;46.18;100227.69;5047841;28;20064;-22
2021/04/21 11:15:36;;;;;;;5.70;3.38;;;;;;;15.42;45.86;100227.09;5047763;28;20040;-22
2021/04/21 11:18:07;;;;;;;6.63;3.95;;;;;;;15.46;46.86;100227.41;5047854;28;20033;-22
2021/04/21 11:20:48;;;;;;;7.03;4.25;;;;;;;15.15;47.21;100218.91;5047579;28;20492;-22
2021/04/21 11:23:50;;;;;;;6.10;4.25;;;;;;;14.85;47.78;100230.81;5047661;28;20111;-22
2021/04/21 11:26:28;;;;;;;7.57;4.57;;;;;;;14.72;48.47;100232.97;5047717;28;20452;-23
2021/04/21 11:29:16;;;;;;;;;;;;;;;14.85;50.16;100222.75;5051733;28;20408;-22
2021/04/21 11:31:41;;;;;;;6.70;4.90;;;;;;;14.85;49.50;100225.44;5051734;28;19908;-22
2021/04/21 11:34:19;;;;;;;7.20;4.72;;;;;;;14.88;50.51;100226.00;5051558;28;20420;-22
2021/04/21 11:37:12;;;;;;;7.35;5.40;;;;;;;14.93;51.12;100234.13;5051327;28;20459;-22
2021/04/21 11:42:23;;;;;;;7.68;5.13;;;;;;;15.05;50.14;100205.31;5051499;28;20469;-22
2021/04/21 11:45:25;;;;;;;10.50;5.82;;;;;;;14.94;50.56;100207.03;5033435;28;20501;-22
2021/04/21 11:47:55;;;;;;;7.38;4.90;;;;;;;15.16;48.51;100206.28;5051656;28;20037;-22